ウシュアイア の空港の天気 - METARとTAF

ウシュアイア空港 ( SAWH / USH ) - アルゼンチン ティエラ・デル・フエゴ州、ウシュアイア
飛行場実況気象(Metar)
観測時間10/16 03:00 ART (10/16 06:00 UTC)
風向・風速南西 10m/s
視程10km以上
天気現象周辺でしゅう雨
全天の4割程度の雲 雲底高度 1070m
全天の8割程度の雲 雲底高度 2440m
気温4℃
湿度75%
気圧983hPa
METARSAWH 160600Z 23019KT 9999 VCSH SCT035 BKN080 04/M00 Q0983
過去の天気等 Google飛行場航空写真 Wunderground天気予報

過去48時間のMETAR

飛行場予報(TAF)
発表時間: 10/16 02:00 ART (10/16 05:00 UTC)
予報対象時間: 16日3時 ART ~ 17日3時 ART
風向・風速南西 10m/s
視程10km以上
全天の8割程度の雲 雲底高度 910m
全天の8割程度の雲 雲底高度 2440m
16日8時 ART ~ 16日11時 ART に徐々に
風向・風速南 13m/s
視程5000m
天気現象雨雪
全天の8割程度の雲 雲底高度 460m
全天の8割程度の雲 雲底高度 910m
16日17時 ART ~ 17日3時 ART に一時的に
視程2000m
天気現象しゅう雪
全天を覆う雲 雲底高度 300m
TAF SAWH 160500Z 1606/1706 23020KT 9999 BKN030 BKN080 TX05/1618Z TN00/1706Z
BECMG 1611/1614 18025KT 5000 RASN BKN015 BKN030
TEMPO 1620/1706 2000 SHSN OVC010